createdAt,value
2023-02-18T00:01:42.175Z,78.85
2023-02-18T00:04:10.222Z,77.06
2023-02-18T00:06:39.208Z,77.63
2023-02-18T00:09:09.212Z,78.33
2023-02-18T00:11:38.705Z,76.76
2023-02-18T00:14:11.656Z,77.23
2023-02-18T00:16:39.798Z,78.25
2023-02-18T00:19:12.180Z,76.99
2023-02-18T00:21:40.850Z,77.72
2023-02-18T00:24:10.163Z,77.47
2023-02-18T00:26:38.061Z,77.03
2023-02-18T00:29:06.425Z,77.96
2023-02-18T00:31:36.705Z,75.97
2023-02-18T00:34:05.822Z,75.67
2023-02-18T00:36:35.890Z,75.61
2023-02-18T00:39:07.440Z,76.81
2023-02-18T00:41:36.872Z,75.69
2023-02-18T00:44:05.834Z,76.40
2023-02-18T00:46:35.911Z,76.11
2023-02-18T00:49:05.223Z,76.60
2023-02-18T00:51:34.145Z,76.42
2023-02-18T00:54:02.237Z,76.64
2023-02-18T00:56:30.404Z,75.67
2023-02-18T00:58:58.430Z,76.22
2023-02-18T01:01:28.043Z,76.16
2023-02-18T01:03:56.238Z,74.99
2023-02-18T01:06:24.237Z,75.30
2023-02-18T01:08:52.458Z,75.15
2023-02-18T01:11:20.714Z,75.69
2023-02-18T01:13:49.094Z,75.60
2023-02-18T01:16:17.303Z,75.40
2023-02-18T01:18:47.622Z,74.93
2023-02-18T01:21:15.782Z,75.98
2023-02-18T01:23:43.673Z,75.91
2023-02-18T01:26:11.907Z,74.69
2023-02-18T01:28:41.634Z,74.13
2023-02-18T01:31:12.643Z,73.38
2023-02-18T01:33:41.498Z,74.46
2023-02-18T01:36:11.386Z,73.90
2023-02-18T01:38:40.030Z,73.99
2023-02-18T01:41:09.126Z,73.83
2023-02-18T01:43:37.873Z,74.18
2023-02-18T01:46:19.565Z,74.80
2023-02-18T01:49:01.479Z,74.58
2023-02-18T01:51:46.442Z,74.26
2023-02-18T01:54:36.002Z,72.87
2023-02-18T01:57:07.931Z,73.45
2023-02-18T01:59:44.577Z,73.65
2023-02-18T02:02:16.200Z,73.73
2023-02-18T02:04:44.675Z,73.28
2023-02-18T02:07:12.897Z,73.91
2023-02-18T02:09:41.858Z,73.49
2023-02-18T02:12:28.734Z,73.91
2023-02-18T02:15:43.438Z,74.31
2023-02-18T02:18:42.951Z,74.59
2023-02-18T02:21:43.161Z,73.20
2023-02-18T02:24:30.177Z,73.42
2023-02-18T02:27:12.616Z,73.49
2023-02-18T02:29:54.959Z,72.26
2023-02-18T02:32:35.127Z,73.25
2023-02-18T02:35:16.868Z,72.95
2023-02-18T02:37:54.316Z,73.16
2023-02-18T02:40:41.464Z,72.37
2023-02-18T02:43:24.254Z,72.92
2023-02-18T02:46:12.129Z,73.63
2023-02-18T02:48:48.944Z,72.71
2023-02-18T02:51:30.464Z,72.81
2023-02-18T02:54:25.849Z,73.26
2023-02-18T02:57:13.683Z,73.80
2023-02-18T02:59:58.511Z,73.55
2023-02-18T03:02:35.517Z,73.49
2023-02-18T03:05:15.779Z,73.47
2023-02-18T03:08:19.198Z,73.18
2023-02-18T03:10:47.521Z,73.39
2023-02-18T03:13:44.975Z,73.44
2023-02-18T03:16:16.685Z,72.98
2023-02-18T03:18:55.927Z,73.52
2023-02-18T03:21:26.713Z,73.38
2023-02-18T03:24:19.773Z,73.08
2023-02-18T03:26:56.560Z,72.87
2023-02-18T03:29:26.099Z,72.98
2023-02-18T03:32:03.584Z,73.20
2023-02-18T03:34:35.772Z,73.08
2023-02-18T03:37:04.029Z,73.51
2023-02-18T03:39:36.231Z,73.60
2023-02-18T03:42:05.198Z,73.84
2023-02-18T03:44:33.398Z,74.03
2023-02-18T03:47:01.530Z,74.22
2023-02-18T03:49:29.498Z,74.08
2023-02-18T03:51:57.533Z,74.01
2023-02-18T03:54:25.491Z,73.94
2023-02-18T03:56:53.503Z,73.90
2023-02-18T03:59:21.558Z,73.98
2023-02-18T04:01:49.659Z,73.50
2023-02-18T04:04:18.047Z,74.05
2023-02-18T04:06:46.080Z,74.21
2023-02-18T04:09:14.217Z,74.04
2023-02-18T04:11:42.526Z,74.00
2023-02-18T04:14:14.270Z,73.96
2023-02-18T04:16:42.917Z,73.24
2023-02-18T04:19:11.137Z,73.21
2023-02-18T04:21:38.968Z,73.82
2023-02-18T04:24:07.077Z,73.61
2023-02-18T04:26:35.320Z,73.59
2023-02-18T04:29:03.432Z,73.55
2023-02-18T04:31:31.587Z,73.39
2023-02-18T04:33:59.869Z,73.33
2023-02-18T04:36:28.001Z,73.15
2023-02-18T04:38:56.059Z,73.41
2023-02-18T04:41:24.152Z,73.81
2023-02-18T04:43:52.332Z,73.80
2023-02-18T04:46:20.337Z,73.51
2023-02-18T04:48:48.333Z,73.58
2023-02-18T04:51:16.625Z,73.75
2023-02-18T04:53:44.634Z,73.51
2023-02-18T04:56:13.191Z,73.65
2023-02-18T04:58:41.701Z,73.47
2023-02-18T05:01:10.679Z,73.46
2023-02-18T05:03:38.921Z,73.20
2023-02-18T05:06:07.267Z,73.50
2023-02-18T05:08:35.511Z,73.27
2023-02-18T05:11:09.746Z,73.27
2023-02-18T05:13:38.476Z,73.19
2023-02-18T05:16:07.003Z,73.24
2023-02-18T05:18:35.233Z,73.38
2023-02-18T05:21:03.361Z,73.70
2023-02-18T05:23:31.403Z,73.28
2023-02-18T05:25:59.384Z,73.06
2023-02-18T05:28:27.356Z,73.17
2023-02-18T05:30:55.514Z,72.86
2023-02-18T05:33:23.506Z,73.43
2023-02-18T05:35:51.465Z,72.94
2023-02-18T05:38:19.495Z,73.58
2023-02-18T05:40:47.872Z,72.97
2023-02-18T05:43:15.957Z,73.39
2023-02-18T05:45:44.010Z,72.63
2023-02-18T05:48:11.980Z,73.33
2023-02-18T05:50:40.289Z,73.22
2023-02-18T05:53:08.234Z,73.11
2023-02-18T05:55:39.425Z,73.09
2023-02-18T05:58:07.521Z,73.03
2023-02-18T06:00:35.473Z,73.05
2023-02-18T06:03:03.530Z,73.27
2023-02-18T06:05:31.766Z,72.98
2023-02-18T06:08:00.009Z,72.92
2023-02-18T06:10:27.950Z,73.28
2023-02-18T06:12:55.978Z,73.31
2023-02-18T06:15:23.996Z,73.35
2023-02-18T06:17:51.953Z,73.40
2023-02-18T06:20:20.112Z,73.38
2023-02-18T06:22:48.312Z,73.19
2023-02-18T06:25:16.423Z,73.34
2023-02-18T06:27:44.447Z,72.93
2023-02-18T06:30:13.116Z,73.27
2023-02-18T06:32:41.196Z,73.17
2023-02-18T06:35:09.703Z,72.88
2023-02-18T06:37:38.041Z,73.37
2023-02-18T06:40:07.996Z,72.87
2023-02-18T06:42:36.294Z,73.00
2023-02-18T06:45:06.728Z,73.16
2023-02-18T06:47:35.031Z,72.83
2023-02-18T06:50:03.864Z,73.40
2023-02-18T06:52:33.615Z,73.22
2023-02-18T06:55:01.545Z,72.84
2023-02-18T06:57:29.647Z,73.23
2023-02-18T06:59:57.884Z,73.24
2023-02-18T07:02:25.775Z,72.93
2023-02-18T07:04:54.265Z,73.13
2023-02-18T07:07:22.339Z,73.13
2023-02-18T07:09:50.188Z,72.85
2023-02-18T07:12:18.217Z,72.83
2023-02-18T07:14:46.431Z,72.89
2023-02-18T07:17:15.039Z,72.97
2023-02-18T07:19:43.203Z,72.77
2023-02-18T07:22:11.619Z,72.87
2023-02-18T07:24:39.481Z,72.95
2023-02-18T07:27:07.450Z,73.01
2023-02-18T07:29:35.513Z,72.86
2023-02-18T07:32:03.485Z,72.61
2023-02-18T07:34:31.631Z,72.73
2023-02-18T07:36:59.938Z,72.64
2023-02-18T07:39:27.781Z,72.91
2023-02-18T07:41:55.852Z,72.53
2023-02-18T07:44:27.662Z,72.35
2023-02-18T07:46:55.645Z,71.90
2023-02-18T07:49:23.749Z,72.20
2023-02-18T07:51:52.102Z,72.46
2023-02-18T07:54:20.531Z,72.62
2023-02-18T07:56:48.921Z,72.26
2023-02-18T07:59:17.029Z,72.00
2023-02-18T08:01:45.167Z,71.84
2023-02-18T08:04:13.656Z,71.54
2023-02-18T08:06:46.204Z,71.90
2023-02-18T08:09:14.694Z,71.54
2023-02-18T08:11:43.097Z,71.77
2023-02-18T08:14:11.204Z,71.71
2023-02-18T08:16:40.001Z,71.48
2023-02-18T08:19:08.818Z,71.29
2023-02-18T08:21:36.840Z,70.75
2023-02-18T08:24:05.069Z,71.05
2023-02-18T08:26:33.530Z,70.77
2023-02-18T08:29:01.496Z,70.55
2023-02-18T08:31:30.990Z,70.44
2023-02-18T08:34:00.728Z,70.50
2023-02-18T08:36:29.187Z,70.57
2023-02-18T08:38:58.782Z,71.17
2023-02-18T08:41:26.948Z,71.02
2023-02-18T08:43:54.910Z,70.75
2023-02-18T08:46:27.274Z,70.98
2023-02-18T08:49:05.267Z,70.99
2023-02-18T08:51:33.752Z,71.04
2023-02-18T08:54:08.064Z,71.02
2023-02-18T08:56:36.237Z,70.77
2023-02-18T08:59:04.240Z,70.60
2023-02-18T09:01:32.271Z,70.53
2023-02-18T09:04:01.946Z,70.70
2023-02-18T09:06:30.097Z,69.93
2023-02-18T09:09:01.001Z,70.28
2023-02-18T09:11:29.613Z,70.54
2023-02-18T09:13:57.534Z,69.81
2023-02-18T09:16:28.436Z,69.48
2023-02-18T09:18:59.323Z,70.12
2023-02-18T09:21:27.736Z,70.09
2023-02-18T09:23:56.540Z,70.04
2023-02-18T09:26:26.643Z,70.36
2023-02-18T09:28:56.884Z,70.02
2023-02-18T09:31:27.004Z,69.66
2023-02-18T09:33:58.388Z,69.81
2023-02-18T09:36:30.389Z,69.97
2023-02-18T09:39:01.697Z,70.67
2023-02-18T09:41:44.642Z,70.16
2023-02-18T09:44:36.256Z,69.78
2023-02-18T09:47:17.412Z,69.78
2023-02-18T09:49:54.913Z,69.58
2023-02-18T09:52:32.080Z,69.92
2023-02-18T09:55:25.897Z,70.07
2023-02-18T09:57:57.934Z,69.73
2023-02-18T10:00:28.873Z,69.71
2023-02-18T10:03:04.950Z,70.08
2023-02-18T10:05:37.645Z,69.91
2023-02-18T10:08:22.162Z,68.74
2023-02-18T10:10:51.929Z,69.03
2023-02-18T10:13:32.715Z,68.96
2023-02-18T10:16:06.368Z,69.71
2023-02-18T10:18:43.989Z,70.04
2023-02-18T10:21:18.455Z,69.59
2023-02-18T10:24:27.542Z,69.66
2023-02-18T10:26:59.842Z,69.87
2023-02-18T10:29:29.551Z,70.09
2023-02-18T10:32:41.715Z,70.09
2023-02-18T10:35:33.557Z,70.23
2023-02-18T10:38:16.905Z,69.80
2023-02-18T10:41:27.653Z,70.35
2023-02-18T10:44:26.921Z,70.02
2023-02-18T10:47:52.159Z,70.20
2023-02-18T10:50:36.066Z,70.10
2023-02-18T10:53:37.890Z,70.41
2023-02-18T10:56:09.812Z,70.12
2023-02-18T10:58:47.389Z,70.38
2023-02-18T11:01:22.684Z,70.57
2023-02-18T11:04:04.048Z,69.91
2023-02-18T11:06:39.383Z,69.67
2023-02-18T11:09:09.741Z,69.96
2023-02-18T11:11:39.562Z,70.05
2023-02-18T11:14:13.942Z,70.29
2023-02-18T11:16:50.344Z,70.00
2023-02-18T11:19:35.510Z,70.16
2023-02-18T11:22:16.467Z,70.54
2023-02-18T11:24:48.990Z,70.18
2023-02-18T11:27:53.626Z,69.75
2023-02-18T11:30:42.324Z,70.32
2023-02-18T11:33:28.514Z,69.75
2023-02-18T11:35:59.220Z,69.58
2023-02-18T11:38:48.034Z,69.82
2023-02-18T11:41:34.537Z,69.60
2023-02-18T11:44:23.251Z,69.88
2023-02-18T11:47:06.764Z,70.00
2023-02-18T11:49:36.820Z,70.12
2023-02-18T11:52:29.285Z,69.36
2023-02-18T11:55:05.412Z,69.19
2023-02-18T11:57:43.510Z,69.03
2023-02-18T12:00:23.510Z,69.43
2023-02-18T12:02:55.704Z,69.51
2023-02-18T12:05:26.601Z,69.32
2023-02-18T12:08:01.960Z,69.77
2023-02-18T12:10:43.442Z,69.41
2023-02-18T12:13:24.026Z,68.88
2023-02-18T12:16:21.315Z,69.46
2023-02-18T12:19:03.359Z,69.16
2023-02-18T12:21:55.844Z,68.71
2023-02-18T12:24:57.739Z,69.43
2023-02-18T12:27:57.097Z,69.06
2023-02-18T12:30:48.728Z,68.83
2023-02-18T12:33:42.938Z,68.88
2023-02-18T12:36:29.034Z,69.07
2023-02-18T12:39:08.640Z,68.22
2023-02-18T12:41:48.089Z,68.86
2023-02-18T12:44:45.305Z,68.92
2023-02-18T12:47:41.941Z,69.06
2023-02-18T12:50:21.974Z,68.69
2023-02-18T12:52:58.764Z,68.52
2023-02-18T12:56:01.890Z,68.22
2023-02-18T12:58:47.530Z,68.05
2023-02-18T13:01:49.009Z,68.67
2023-02-18T13:04:29.349Z,68.89
2023-02-18T13:07:09.798Z,69.02
2023-02-18T13:10:06.417Z,68.70
2023-02-18T13:12:45.986Z,68.78
2023-02-18T13:15:18.193Z,68.55
2023-02-18T13:17:47.805Z,68.84
2023-02-18T13:20:41.201Z,68.74
2023-02-18T13:23:17.730Z,68.77
2023-02-18T13:25:49.039Z,68.99
2023-02-18T13:28:22.850Z,69.00
2023-02-18T13:31:15.449Z,69.33
2023-02-18T13:33:43.604Z,68.86
2023-02-18T13:36:50.203Z,68.30
2023-02-18T13:39:22.368Z,68.75
2023-02-18T13:41:51.995Z,68.70
2023-02-18T13:44:22.949Z,68.93
2023-02-18T13:46:59.172Z,68.77
2023-02-18T13:49:35.941Z,69.17
2023-02-18T13:52:05.393Z,69.24
2023-02-18T13:54:42.817Z,69.08
2023-02-18T13:57:22.199Z,68.96
2023-02-18T13:59:58.622Z,69.05
2023-02-18T14:02:27.376Z,69.38
2023-02-18T14:04:57.372Z,69.64
2023-02-18T14:07:41.687Z,69.46
2023-02-18T14:10:32.774Z,69.55
2023-02-18T14:13:20.799Z,69.59
2023-02-18T14:15:58.232Z,69.90
2023-02-18T14:18:54.528Z,70.12
2023-02-18T14:21:36.366Z,70.23
2023-02-18T14:24:07.520Z,70.39
2023-02-18T14:26:39.921Z,70.52
2023-02-18T14:29:30.789Z,70.65
2023-02-18T14:32:10.014Z,70.63
2023-02-18T14:35:15.791Z,70.86
2023-02-18T14:38:29.114Z,70.95
2023-02-18T14:41:14.860Z,71.14
2023-02-18T14:43:52.480Z,70.86
2023-02-18T14:46:44.196Z,70.35
2023-02-18T14:49:45.084Z,70.28
2023-02-18T14:52:19.504Z,69.91
2023-02-18T14:54:48.635Z,69.79
2023-02-18T14:57:20.605Z,70.26
2023-02-18T14:59:48.880Z,70.61
2023-02-18T15:02:27.716Z,70.59
2023-02-18T15:05:13.171Z,70.63
2023-02-18T15:07:41.258Z,71.00
2023-02-18T15:10:16.037Z,71.49
2023-02-18T15:12:44.257Z,72.18
2023-02-18T15:15:16.201Z,72.75
2023-02-18T15:17:56.496Z,73.08
2023-02-18T15:20:24.674Z,73.57
2023-02-18T15:22:52.838Z,74.03
2023-02-18T15:25:20.948Z,74.29
2023-02-18T15:27:52.485Z,74.72
2023-02-18T15:30:31.574Z,74.95
2023-02-18T15:33:01.303Z,75.07
2023-02-18T15:35:33.708Z,75.52
2023-02-18T15:38:02.275Z,75.56
2023-02-18T15:40:32.891Z,75.62
2023-02-18T15:43:04.277Z,75.74
2023-02-18T15:45:38.942Z,75.54
2023-02-18T15:48:07.257Z,75.66
2023-02-18T15:50:37.976Z,75.96
2023-02-18T15:53:18.798Z,76.11
2023-02-18T15:55:50.728Z,76.14
2023-02-18T15:58:21.512Z,76.44
2023-02-18T16:00:51.083Z,76.67
2023-02-18T16:03:22.313Z,76.61
2023-02-18T16:05:51.521Z,77.19
2023-02-18T16:08:38.549Z,77.16
2023-02-18T16:11:13.495Z,77.05
2023-02-18T16:13:48.068Z,76.95
2023-02-18T16:16:32.423Z,76.73
2023-02-18T16:19:01.665Z,76.51
2023-02-18T16:21:44.751Z,76.67
2023-02-18T16:24:28.284Z,76.65
2023-02-18T16:27:01.348Z,77.58
2023-02-18T16:29:40.685Z,78.34
2023-02-18T16:32:08.945Z,79.16
2023-02-18T16:34:37.178Z,79.36
2023-02-18T16:37:23.963Z,79.00
2023-02-18T16:39:55.030Z,80.19
2023-02-18T16:42:22.994Z,80.11
2023-02-18T16:44:52.058Z,80.92
2023-02-18T16:47:20.564Z,81.18
2023-02-18T16:49:50.864Z,81.75
2023-02-18T16:52:19.633Z,82.54
2023-02-18T16:54:48.377Z,82.91
2023-02-18T16:57:16.446Z,83.25
2023-02-18T16:59:44.404Z,83.42
2023-02-18T17:02:22.845Z,83.73
2023-02-18T17:04:54.508Z,83.48
2023-02-18T17:07:22.494Z,83.07
2023-02-18T17:09:50.622Z,82.88
2023-02-18T17:12:18.709Z,82.41
2023-02-18T17:14:46.965Z,82.57
2023-02-18T17:17:15.143Z,83.06
2023-02-18T17:19:43.167Z,83.19
2023-02-18T17:22:13.924Z,84.28
2023-02-18T17:24:42.051Z,84.91
2023-02-18T17:27:12.965Z,85.12
2023-02-18T17:29:41.091Z,85.06
2023-02-18T17:32:09.258Z,84.78
2023-02-18T17:34:41.236Z,85.12
2023-02-18T17:37:14.154Z,84.70
2023-02-18T17:39:42.465Z,84.26
2023-02-18T17:42:12.283Z,84.35
2023-02-18T17:44:40.822Z,83.97
2023-02-18T17:47:08.894Z,84.00
2023-02-18T17:49:37.017Z,84.66
2023-02-18T17:52:05.436Z,84.87
2023-02-18T17:54:33.538Z,84.76
2023-02-18T17:57:01.797Z,84.61
2023-02-18T17:59:30.656Z,85.02
2023-02-18T18:01:58.821Z,85.31
2023-02-18T18:04:26.977Z,85.51
2023-02-18T18:06:55.778Z,85.83
2023-02-18T18:09:24.812Z,85.59
2023-02-18T18:11:52.853Z,85.49
2023-02-18T18:14:20.889Z,85.49
2023-02-18T18:16:49.034Z,85.64
2023-02-18T18:19:17.198Z,85.77
2023-02-18T18:21:47.216Z,86.01
2023-02-18T18:24:15.396Z,86.02
2023-02-18T18:26:43.361Z,86.11
2023-02-18T18:29:11.602Z,86.34
2023-02-18T18:31:40.041Z,86.25
2023-02-18T18:34:09.881Z,86.15
2023-02-18T18:36:37.966Z,86.42
2023-02-18T18:39:06.523Z,86.57
2023-02-18T18:41:34.854Z,86.62
2023-02-18T18:44:06.215Z,86.64
2023-02-18T18:46:34.771Z,86.40
2023-02-18T18:49:03.292Z,86.23
2023-02-18T18:51:33.310Z,86.47
2023-02-18T18:54:01.457Z,86.91
2023-02-18T18:56:29.630Z,87.18
2023-02-18T18:58:58.056Z,87.26
2023-02-18T19:01:27.808Z,87.50
2023-02-18T19:03:56.153Z,87.52
2023-02-18T19:06:24.401Z,87.57
2023-02-18T19:08:52.630Z,87.28
2023-02-18T19:11:20.776Z,87.29
2023-02-18T19:13:48.886Z,87.16
2023-02-18T19:16:34.422Z,87.23
2023-02-18T19:19:02.540Z,87.17
2023-02-18T19:21:31.827Z,87.13
2023-02-18T19:23:59.994Z,86.98
2023-02-18T19:26:28.675Z,87.05
2023-02-18T19:28:56.861Z,87.20
2023-02-18T19:31:25.342Z,87.23
2023-02-18T19:33:53.595Z,87.14
2023-02-18T19:36:21.856Z,87.20
2023-02-18T19:38:52.128Z,87.16
2023-02-18T19:41:20.397Z,87.21
2023-02-18T19:43:48.736Z,87.07
2023-02-18T19:46:18.379Z,87.10
2023-02-18T19:48:52.564Z,87.04
2023-02-18T19:51:21.645Z,87.08
2023-02-18T19:53:49.679Z,86.99
2023-02-18T19:56:18.050Z,86.93
2023-02-18T19:58:46.322Z,86.84
2023-02-18T20:01:16.044Z,86.94
2023-02-18T20:03:44.411Z,86.89
2023-02-18T20:06:20.734Z,86.78
2023-02-18T20:08:49.026Z,86.57
2023-02-18T20:11:17.221Z,86.67
2023-02-18T20:13:47.843Z,86.78
2023-02-18T20:16:16.315Z,86.84
2023-02-18T20:18:44.569Z,86.78
2023-02-18T20:21:13.096Z,86.68
2023-02-18T20:23:42.211Z,86.89
2023-02-18T20:26:12.903Z,86.90
2023-02-18T20:28:41.400Z,87.10
2023-02-18T20:31:12.921Z,87.17
2023-02-18T20:33:45.314Z,87.32
2023-02-18T20:36:14.551Z,87.19
2023-02-18T20:38:42.797Z,87.04
2023-02-18T20:41:14.441Z,87.03
2023-02-18T20:43:42.634Z,86.76
2023-02-18T20:46:13.252Z,86.76
2023-02-18T20:48:41.573Z,86.73
2023-02-18T20:51:13.694Z,86.58
2023-02-18T20:53:43.146Z,86.66
2023-02-18T20:56:11.909Z,86.66
2023-02-18T20:58:40.787Z,86.84
2023-02-18T21:01:12.319Z,86.83
2023-02-18T21:03:40.838Z,86.82
2023-02-18T21:06:15.708Z,86.68
2023-02-18T21:08:46.055Z,86.59
2023-02-18T21:11:23.006Z,86.70
2023-02-18T21:13:53.014Z,86.63
2023-02-18T21:16:22.351Z,86.63
2023-02-18T21:18:51.182Z,86.58
2023-02-18T21:21:20.462Z,86.49
2023-02-18T21:23:48.516Z,86.40
2023-02-18T21:26:22.005Z,86.38
2023-02-18T21:28:52.491Z,86.35
2023-02-18T21:31:24.386Z,86.21
2023-02-18T21:33:52.644Z,86.27
2023-02-18T21:36:21.277Z,86.27
2023-02-18T21:38:57.056Z,86.38
2023-02-18T21:41:26.611Z,86.14
2023-02-18T21:43:55.221Z,86.05
2023-02-18T21:46:26.246Z,86.01
2023-02-18T21:49:07.290Z,85.95
2023-02-18T21:51:59.358Z,85.77
2023-02-18T21:54:41.098Z,85.56
2023-02-18T21:57:16.132Z,85.40
2023-02-18T21:59:45.444Z,85.12
2023-02-18T22:02:20.339Z,84.94
2023-02-18T22:04:50.424Z,84.72
2023-02-18T22:07:20.072Z,84.51
2023-02-18T22:09:49.353Z,84.27
2023-02-18T22:12:18.076Z,84.18
2023-02-18T22:14:46.464Z,84.06
2023-02-18T22:17:16.344Z,83.94
2023-02-18T22:19:44.690Z,83.97
2023-02-18T22:22:12.782Z,84.06
2023-02-18T22:24:41.098Z,84.16
2023-02-18T22:27:09.537Z,84.21
2023-02-18T22:29:37.964Z,84.30
2023-02-18T22:32:06.296Z,84.47
2023-02-18T22:34:34.744Z,84.63
2023-02-18T22:37:02.774Z,84.75
2023-02-18T22:39:30.942Z,84.86
2023-02-18T22:41:59.173Z,85.01
2023-02-18T22:44:27.626Z,85.19
2023-02-18T22:46:59.498Z,85.20
2023-02-18T22:49:27.777Z,85.20
2023-02-18T22:51:55.852Z,85.25
2023-02-18T22:54:24.093Z,85.23
2023-02-18T22:56:53.178Z,85.23
2023-02-18T22:59:21.184Z,85.29
2023-02-18T23:01:49.998Z,85.33
2023-02-18T23:04:20.230Z,85.33
2023-02-18T23:06:48.980Z,85.35
2023-02-18T23:09:23.644Z,85.42
2023-02-18T23:11:54.889Z,85.38
2023-02-18T23:14:23.426Z,85.35
2023-02-18T23:17:13.362Z,85.33
2023-02-18T23:19:43.246Z,85.35
2023-02-18T23:22:13.290Z,85.33
2023-02-18T23:24:44.223Z,85.30
2023-02-18T23:27:14.934Z,85.30
2023-02-18T23:29:43.048Z,85.26
2023-02-18T23:32:11.436Z,85.26
2023-02-18T23:34:40.348Z,85.26
2023-02-18T23:37:08.856Z,85.18
2023-02-18T23:39:37.224Z,85.15
2023-02-18T23:42:05.520Z,85.10
2023-02-18T23:44:33.572Z,85.02
2023-02-18T23:47:01.656Z,84.91
2023-02-18T23:49:29.894Z,85.03
2023-02-18T23:51:58.320Z,85.16
2023-02-18T23:54:26.557Z,85.34
2023-02-18T23:56:54.795Z,85.41
2023-02-18T23:59:23.009Z,85.42
